Time;durP1;ratioP1;P1;durP2;ratioP2;P2;SDS_P1;SDS_P2;PMS_P1;PMS_P2;Temp;Humidity;BMP_temperature;BMP_pressure;BME280_temperature;BME280_humidity;BME280_pressure;Samples;Min_cycle;Max_cycle;Signal;HPM_P1;HPM_P2
2022/07/28 00:03:32;;;;;;;5.07;1.65;;;;;;;;;;10060530;28;20046;-65
2022/07/28 00:08:29;;;;;;;6.78;2.00;;;;;;;;;;10075902;28;20043;-65
2022/07/28 00:13:27;;;;;;;3.40;1.20;;;;;;;;;;10053023;28;20043;-67
2022/07/28 00:18:24;;;;;;;7.13;1.85;;;;;;;;;;10071108;28;20048;-67
2022/07/28 00:23:20;;;;;;;5.30;1.63;;;;;;;;;;10040651;28;20067;-67
2022/07/28 00:28:16;;;;;;;5.45;1.50;;;;;;;;;;10059776;28;20103;-67
2022/07/28 00:33:12;;;;;;;6.07;1.40;;;;;;;;;;10039562;28;20126;-66
2022/07/28 00:38:08;;;;;;;6.85;1.73;;;;;;;;;;10048807;28;20083;-67
2022/07/28 00:43:06;;;;;;;4.95;1.48;;;;;;;;;;10038659;28;20532;-67
2022/07/28 00:48:03;;;;;;;9.35;1.70;;;;;;;;;;10040000;28;20146;-67
2022/07/28 00:53:00;;;;;;;5.95;1.70;;;;;;;;;;10038023;28;20082;-67
2022/07/28 00:57:56;;;;;;;5.68;1.52;;;;;;;;;;10075356;28;20058;-67
2022/07/28 01:02:52;;;;;;;5.72;1.58;;;;;;;;;;10056885;28;20082;-67
2022/07/28 01:07:56;;;;;;;6.72;1.48;;;;;;;;;;10072940;28;20062;-67
2022/07/28 01:13:11;;;;;;;7.80;1.67;;;;;;;;;;10038450;28;20082;-67
2022/07/28 01:18:16;;;;;;;8.30;3.08;;;;;;;;;;10052663;29;20094;-67
2022/07/28 01:23:30;;;;;;;7.18;2.42;;;;;;;;;;10074790;28;20051;-67
2022/07/28 01:28:34;;;;;;;7.95;2.53;;;;;;;;;;10073882;28;20075;-67
2022/07/28 01:33:37;;;;;;;6.10;2.00;;;;;;;;;;10068694;28;20043;-67
2022/07/28 01:38:34;;;;;;;10.00;2.45;;;;;;;;;;10074086;28;20043;-67
2022/07/28 01:43:32;;;;;;;9.88;2.42;;;;;;;;;;10073969;28;20043;-67
2022/07/28 01:48:29;;;;;;;6.35;2.33;;;;;;;;;;10074317;28;20051;-66
2022/07/28 01:53:26;;;;;;;5.38;1.83;;;;;;;;;;10043507;28;20067;-67
2022/07/28 01:58:29;;;;;;;4.93;1.50;;;;;;;;;;10073875;28;20044;-67
2022/07/28 02:03:27;;;;;;;5.32;1.80;;;;;;;;;;10038153;28;20051;-67
2022/07/28 02:08:24;;;;;;;7.30;1.73;;;;;;;;;;10069260;28;20067;-67
2022/07/28 02:13:20;;;;;;;6.95;1.98;;;;;;;;;;10037668;28;20106;-66
2022/07/28 02:18:18;;;;;;;7.25;1.88;;;;;;;;;;10069038;28;20506;-67
2022/07/28 02:23:14;;;;;;;6.47;1.88;;;;;;;;;;10036653;28;20077;-67
2022/07/28 02:28:10;;;;;;;7.00;1.60;;;;;;;;;;10053632;28;20048;-67
2022/07/28 02:33:10;;;;;;;5.05;1.55;;;;;;;;;;10052618;28;20130;-67
2022/07/28 02:38:10;;;;;;;6.38;2.10;;;;;;;;;;10043873;28;20047;-67
2022/07/28 02:43:11;;;;;;;5.57;2.28;;;;;;;;;;10043007;28;20044;-67
2022/07/28 02:48:10;;;;;;;5.13;1.75;;;;;;;;;;10080282;28;20087;-67
2022/07/28 02:53:07;;;;;;;5.57;1.90;;;;;;;;;;10053230;28;20060;-67
2022/07/28 02:58:11;;;;;;;8.15;1.40;;;;;;;;;;10076960;28;20050;-67
2022/07/28 03:03:08;;;;;;;3.42;1.23;;;;;;;;;;10042011;28;20465;-67
2022/07/28 03:08:04;;;;;;;4.00;1.30;;;;;;;;;;10066309;28;20138;-67
2022/07/28 03:13:05;;;;;;;6.50;1.92;;;;;;;;;;10041164;28;20048;-67
2022/07/28 03:18:03;;;;;;;4.90;1.20;;;;;;;;;;10040773;28;20106;-67
2022/07/28 03:22:59;;;;;;;5.85;1.60;;;;;;;;;;10040917;28;20044;-67
2022/07/28 03:27:56;;;;;;;5.57;1.70;;;;;;;;;;10047355;28;20099;-67
2022/07/28 03:32:58;;;;;;;8.32;1.50;;;;;;;;;;10040259;28;20097;-67
2022/07/28 03:38:10;;;;;;;6.03;1.55;;;;;;;;;;10078242;28;20070;-67
2022/07/28 03:43:08;;;;;;;5.35;1.50;;;;;;;;;;10056635;28;20082;-67
2022/07/28 03:48:05;;;;;;;4.60;1.27;;;;;;;;;;10078025;28;20051;-67
2022/07/28 03:53:02;;;;;;;4.85;1.40;;;;;;;;;;10053366;28;20048;-67
2022/07/28 03:57:58;;;;;;;3.67;1.63;;;;;;;;;;10039198;28;20044;-67
2022/07/28 04:02:54;;;;;;;9.57;1.90;;;;;;;;;;10039958;28;20043;-67
2022/07/28 04:07:50;;;;;;;5.43;1.70;;;;;;;;;;10064646;28;20465;-67
2022/07/28 04:12:47;;;;;;;6.10;2.28;;;;;;;;;;10038948;28;20532;-67
2022/07/28 04:17:47;;;;;;;4.45;1.73;;;;;;;;;;10061457;28;20078;-67
2022/07/28 04:22:44;;;;;;;6.88;1.88;;;;;;;;;;10038615;28;20059;-67
2022/07/28 04:27:41;;;;;;;6.10;1.48;;;;;;;;;;10060023;28;20533;-67
2022/07/28 04:32:40;;;;;;;6.03;1.50;;;;;;;;;;10038367;28;20083;-67
2022/07/28 04:37:37;;;;;;;9.23;1.98;;;;;;;;;;10050498;28;20665;-67
2022/07/28 04:42:35;;;;;;;5.53;1.65;;;;;;;;;;10037138;28;20102;-67
2022/07/28 04:47:31;;;;;;;7.55;1.75;;;;;;;;;;10041590;28;20195;-67
2022/07/28 04:52:27;;;;;;;5.32;2.25;;;;;;;;;;10037592;28;20711;-67
2022/07/28 04:57:26;;;;;;;5.35;1.77;;;;;;;;;;10036917;28;20052;-67
2022/07/28 05:02:23;;;;;;;4.45;1.40;;;;;;;;;;10036999;28;20051;-67
2022/07/28 05:07:19;;;;;;;6.90;2.40;;;;;;;;;;10070559;28;20083;-67
2022/07/28 05:12:15;;;;;;;7.72;1.85;;;;;;;;;;10067871;28;20052;-67
2022/07/28 05:17:12;;;;;;;6.40;1.90;;;;;;;;;;10068828;28;20130;-67
2022/07/28 05:22:09;;;;;;;8.63;1.88;;;;;;;;;;10056922;28;20502;-67
2022/07/28 05:27:05;;;;;;;7.00;1.88;;;;;;;;;;10067751;28;20490;-67
2022/07/28 05:32:02;;;;;;;5.50;2.15;;;;;;;;;;10047958;28;20127;-67
2022/07/28 05:37:12;;;;;;;5.93;1.58;;;;;;;;;;10065428;28;20043;-67
2022/07/28 05:42:09;;;;;;;4.70;1.73;;;;;;;;;;10035827;28;20466;-67
2022/07/28 05:47:05;;;;;;;6.28;1.50;;;;;;;;;;10048424;28;20518;-67
2022/07/28 05:52:02;;;;;;;4.93;1.60;;;;;;;;;;10036475;28;20533;-67
2022/07/28 05:56:58;;;;;;;4.70;1.30;;;;;;;;;;10066711;28;20051;-67
2022/07/28 06:01:54;;;;;;;6.95;1.77;;;;;;;;;;10067697;28;20553;-67
2022/07/28 06:06:51;;;;;;;5.63;1.27;;;;;;;;;;10065325;28;20055;-67
2022/07/28 06:11:49;;;;;;;5.47;1.20;;;;;;;;;;10081905;28;20191;-67
2022/07/28 06:16:49;;;;;;;3.55;1.55;;;;;;;;;;10081198;28;20050;-67
2022/07/28 06:21:46;;;;;;;4.88;1.38;;;;;;;;;;10054903;28;20055;-67
2022/07/28 06:26:43;;;;;;;4.93;1.25;;;;;;;;;;10083849;28;20114;-67
2022/07/28 06:31:40;;;;;;;4.68;1.52;;;;;;;;;;10042847;28;20052;-67
2022/07/28 06:36:36;;;;;;;7.50;1.70;;;;;;;;;;10052197;28;20048;-66
2022/07/28 06:41:32;;;;;;;6.45;1.58;;;;;;;;;;10041950;28;20055;-66
2022/07/28 06:46:30;;;;;;;7.10;1.50;;;;;;;;;;10050664;28;20051;-66
2022/07/28 06:51:27;;;;;;;6.93;1.45;;;;;;;;;;10041724;28;20163;-66
2022/07/28 06:56:23;;;;;;;7.00;1.65;;;;;;;;;;10044114;28;20509;-66
2022/07/28 07:01:19;;;;;;;5.30;2.28;;;;;;;;;;10042418;28;20055;-66
2022/07/28 07:06:16;;;;;;;4.55;1.30;;;;;;;;;;10066244;28;20051;-66
2022/07/28 07:11:12;;;;;;;5.05;1.65;;;;;;;;;;10062896;28;20596;-66
2022/07/28 07:16:09;;;;;;;4.20;1.65;;;;;;;;;;10064938;28;20047;-66
2022/07/28 07:21:05;;;;;;;8.18;1.75;;;;;;;;;;10053049;28;20686;-67
2022/07/28 07:26:02;;;;;;;6.45;1.83;;;;;;;;;;10078603;28;20067;-66
2022/07/28 07:30:58;;;;;;;7.68;1.80;;;;;;;;;;10079004;28;20047;-67
2022/07/28 07:35:55;;;;;;;6.95;1.77;;;;;;;;;;10075909;28;20050;-66
2022/07/28 07:40:51;;;;;;;6.10;2.05;;;;;;;;;;10040205;28;20051;-66
2022/07/28 07:45:47;;;;;;;4.20;2.00;;;;;;;;;;10056430;28;20086;-67
2022/07/28 07:50:43;;;;;;;6.97;2.10;;;;;;;;;;10039424;28;20095;-66
2022/07/28 07:55:40;;;;;;;3.63;1.80;;;;;;;;;;10060533;28;20043;-66
2022/07/28 08:00:36;;;;;;;6.35;1.80;;;;;;;;;;10078506;28;20050;-67
2022/07/28 08:05:32;;;;;;;6.35;2.00;;;;;;;;;;10072030;28;20465;-67
2022/07/28 08:10:32;;;;;;;3.90;1.60;;;;;;;;;;10077675;28;20098;-67
2022/07/28 08:15:28;;;;;;;5.50;2.03;;;;;;;;;;10069918;28;20147;-67
2022/07/28 08:20:25;;;;;;;4.72;1.83;;;;;;;;;;10077701;28;20429;-67
2022/07/28 08:25:22;;;;;;;6.15;2.17;;;;;;;;;;10065665;28;20121;-67
2022/07/28 08:30:18;;;;;;;4.50;2.00;;;;;;;;;;10077396;28;20509;-67
2022/07/28 08:35:18;;;;;;;4.90;1.83;;;;;;;;;;10054677;28;20509;-67
2022/07/28 08:40:31;;;;;;;7.35;2.15;;;;;;;;;;10076492;28;20046;-67
2022/07/28 08:45:27;;;;;;;5.50;1.85;;;;;;;;;;10076155;28;20613;-67
2022/07/28 08:50:28;;;;;;;6.95;2.30;;;;;;;;;;10048117;28;20055;-67
2022/07/28 08:55:26;;;;;;;6.75;2.53;;;;;;;;;;10056073;28;20450;-67
2022/07/28 09:00:27;;;;;;;8.70;2.28;;;;;;;;;;10045352;28;20663;-67
2022/07/28 09:05:24;;;;;;;7.53;2.42;;;;;;;;;;10046194;28;20455;-67
2022/07/28 09:10:20;;;;;;;4.43;1.98;;;;;;;;;;10037022;28;20051;-67
2022/07/28 09:15:17;;;;;;;8.32;2.80;;;;;;;;;;10054593;28;20449;-67
2022/07/28 09:20:13;;;;;;;4.35;2.10;;;;;;;;;;10075059;28;20098;-67
2022/07/28 09:25:18;;;;;;;4.45;2.20;;;;;;;;;;10055908;28;20078;-67
2022/07/28 09:30:15;;;;;;;6.93;2.28;;;;;;;;;;10062089;28;20494;-67
2022/07/28 09:35:18;;;;;;;16.05;3.75;;;;;;;;;;10052385;28;20458;-67
2022/07/28 09:40:15;;;;;;;3.80;2.38;;;;;;;;;;10045829;28;20095;-67
2022/07/28 09:45:11;;;;;;;5.28;1.80;;;;;;;;;;10052493;28;20051;-67
2022/07/28 09:50:19;;;;;;;5.13;2.42;;;;;;;;;;10044260;28;20091;-67
2022/07/28 09:55:15;;;;;;;5.97;2.72;;;;;;;;;;10053285;28;20062;-68
2022/07/28 10:00:23;;;;;;;5.95;2.30;;;;;;;;;;10044429;28;20099;-67
2022/07/28 10:05:37;;;;;;;5.68;2.40;;;;;;;;;;10051136;28;20039;-66
2022/07/28 10:10:33;;;;;;;5.97;2.33;;;;;;;;;;10035538;28;20111;-66
2022/07/28 10:20:48;;;;;;;3.95;2.67;;;;;;;;;;10074318;28;20046;-66
2022/07/28 10:25:45;;;;;;;5.82;2.90;;;;;;;;;;10060604;28;20483;-66
2022/07/28 10:30:41;;;;;;;3.53;2.40;;;;;;;;;;10059657;28;20051;-66
2022/07/28 10:35:38;;;;;;;5.85;2.47;;;;;;;;;;10055455;28;20061;-67
2022/07/28 10:40:53;;;;;;;5.38;2.20;;;;;;;;;;10046555;28;20131;-67
2022/07/28 10:45:49;;;;;;;4.50;1.77;;;;;;;;;;10052983;28;20048;-66
2022/07/28 10:51:05;;;;;;;5.25;2.65;;;;;;;;;;10034963;28;20573;-67
2022/07/28 10:56:03;;;;;;;4.93;2.50;;;;;;;;;;10055287;28;20494;-66
2022/07/28 11:01:00;;;;;;;3.50;2.55;;;;;;;;;;10041709;28;20051;-66
2022/07/28 11:06:20;;;;;;;4.00;2.40;;;;;;;;;;10067067;28;20532;-67
2022/07/28 11:11:36;;;;;;;4.40;2.90;;;;;;;;;;10077327;28;20660;-67
2022/07/28 11:16:33;;;;;;;4.30;2.83;;;;;;;;;;10067703;28;20134;-67
2022/07/28 11:21:32;;;;;;;5.82;2.63;;;;;;;;;;10079103;28;20458;-67
2022/07/28 11:26:36;;;;;;;5.53;2.53;;;;;;;;;;10079080;28;20082;-66
2022/07/28 11:31:45;;;;;;;4.80;2.92;;;;;;;;;;10059215;28;20126;-67
2022/07/28 11:36:56;;;;;;;8.15;3.58;;;;;;;;;;10068811;28;20074;-67
2022/07/28 11:41:53;;;;;;;4.07;2.80;;;;;;;;;;10051510;28;20039;-67
2022/07/28 11:46:49;;;;;;;4.10;2.47;;;;;;;;;;10069676;28;20070;-67
2022/07/28 11:52:08;;;;;;;7.32;2.78;;;;;;;;;;10042256;28;20067;-67
2022/07/28 11:57:06;;;;;;;6.13;2.80;;;;;;;;;;10069489;28;20047;-66
2022/07/28 12:02:02;;;;;;;6.93;3.00;;;;;;;;;;10039318;28;20119;-66
2022/07/28 12:07:00;;;;;;;3.67;2.55;;;;;;;;;;10049720;28;20051;-67
2022/07/28 12:11:57;;;;;;;4.68;2.40;;;;;;;;;;10038922;28;20066;-66
2022/07/28 12:16:54;;;;;;;5.15;2.45;;;;;;;;;;10058386;28;20095;-66
2022/07/28 12:21:52;;;;;;;5.00;2.70;;;;;;;;;;10038871;28;20051;-66
2022/07/28 12:26:50;;;;;;;6.15;3.05;;;;;;;;;;10038346;28;20422;-67
2022/07/28 12:31:54;;;;;;;4.40;2.78;;;;;;;;;;10038730;28;20428;-66
2022/07/28 12:36:51;;;;;;;5.80;3.10;;;;;;;;;;10067742;28;20046;-67
2022/07/28 12:41:57;;;;;;;3.92;2.38;;;;;;;;;;10073374;28;20132;-67
2022/07/28 12:46:54;;;;;;;4.40;2.95;;;;;;;;;;10067756;28;20070;-67
2022/07/28 12:51:50;;;;;;;4.28;3.85;;;;;;;;;;10056539;28;20091;-66
2022/07/28 12:56:47;;;;;;;5.03;3.78;;;;;;;;;;10066427;28;20066;-66
2022/07/28 13:01:54;;;;;;;4.60;3.60;;;;;;;;;;10041232;28;20074;-67
2022/07/28 13:06:55;;;;;;;4.38;3.08;;;;;;;;;;10051037;28;20131;-67
2022/07/28 13:11:51;;;;;;;4.28;2.40;;;;;;;;;;10036982;28;20071;-67
2022/07/28 13:16:57;;;;;;;3.40;2.20;;;;;;;;;;10049048;28;20082;-67
2022/07/28 13:21:56;;;;;;;3.70;2.42;;;;;;;;;;10036932;28;20095;-66
2022/07/28 13:27:00;;;;;;;3.75;2.60;;;;;;;;;;10067224;28;20416;-67
2022/07/28 13:31:56;;;;;;;3.25;2.30;;;;;;;;;;10072441;28;20090;-66
2022/07/28 13:36:52;;;;;;;5.75;2.60;;;;;;;;;;10065843;28;20122;-67
2022/07/28 13:41:49;;;;;;;5.35;2.40;;;;;;;;;;10056382;28;20066;-66
2022/07/28 13:46:55;;;;;;;4.18;2.75;;;;;;;;;;10066134;28;20050;-67
2022/07/28 13:51:52;;;;;;;6.45;2.63;;;;;;;;;;10045816;28;20051;-67
2022/07/28 13:56:48;;;;;;;3.40;2.15;;;;;;;;;;10060410;28;20102;-66
2022/07/28 14:01:44;;;;;;;6.00;2.60;;;;;;;;;;10036603;28;20128;-66
2022/07/28 14:06:45;;;;;;;4.32;2.78;;;;;;;;;;10064414;28;20414;-66
2022/07/28 14:11:41;;;;;;;4.97;2.90;;;;;;;;;;10042247;28;20059;-66
2022/07/28 14:16:49;;;;;;;4.22;2.30;;;;;;;;;;10060529;28;20048;-66
2022/07/28 14:21:45;;;;;;;4.45;2.33;;;;;;;;;;10035785;28;20413;-67
2022/07/28 14:26:42;;;;;;;4.75;2.63;;;;;;;;;;10051877;28;20078;-67
2022/07/28 14:31:38;;;;;;;8.60;2.60;;;;;;;;;;10041628;28;20062;-66
2022/07/28 14:36:35;;;;;;;4.60;2.70;;;;;;;;;;10047051;28;20429;-66
2022/07/28 14:41:31;;;;;;;3.72;2.80;;;;;;;;;;10041950;28;20135;-66
2022/07/28 14:46:28;;;;;;;3.22;2.22;;;;;;;;;;10069593;28;20055;-67
2022/07/28 14:51:25;;;;;;;5.80;2.78;;;;;;;;;;10081367;28;20051;-67
2022/07/28 14:56:21;;;;;;;4.32;2.97;;;;;;;;;;10074702;28;20081;-66
2022/07/28 15:01:17;;;;;;;6.15;3.22;;;;;;;;;;10074342;28;20103;-67
2022/07/28 15:06:14;;;;;;;5.18;2.67;;;;;;;;;;10066262;28;20055;-67
2022/07/28 15:11:10;;;;;;;4.00;2.40;;;;;;;;;;10071817;28;20043;-67
2022/07/28 15:16:06;;;;;;;3.35;2.72;;;;;;;;;;10071630;28;20044;-67
2022/07/28 15:21:05;;;;;;;4.97;3.05;;;;;;;;;;10058639;28;20614;-67
2022/07/28 15:26:01;;;;;;;4.13;2.80;;;;;;;;;;10064515;28;20043;-67
2022/07/28 15:30:58;;;;;;;5.43;3.13;;;;;;;;;;10042285;28;20087;-68
2022/07/28 15:35:57;;;;;;;4.13;2.63;;;;;;;;;;10054463;28;20425;-67
2022/07/28 15:40:57;;;;;;;7.60;2.60;;;;;;;;;;10039618;28;20040;-67
2022/07/28 15:45:54;;;;;;;5.07;2.67;;;;;;;;;;10048183;28;20123;-67
2022/07/28 15:50:51;;;;;;;3.25;2.65;;;;;;;;;;10039735;28;20074;-67
2022/07/28 15:55:48;;;;;;;5.55;2.80;;;;;;;;;;10045943;28;20036;-67
2022/07/28 16:00:48;;;;;;;6.85;3.15;;;;;;;;;;10039538;28;20044;-67
2022/07/28 16:05:48;;;;;;;4.70;2.72;;;;;;;;;;10060761;28;20050;-67
2022/07/28 16:10:45;;;;;;;4.40;2.63;;;;;;;;;;10077352;28;20043;-67
2022/07/28 16:15:41;;;;;;;4.85;2.80;;;;;;;;;;10067085;28;20477;-66
2022/07/28 16:20:37;;;;;;;5.32;2.95;;;;;;;;;;10077333;28;20130;-67
2022/07/28 16:25:34;;;;;;;3.78;2.97;;;;;;;;;;10060921;28;20055;-67
2022/07/28 16:30:32;;;;;;;3.80;2.63;;;;;;;;;;10077384;28;20573;-67
2022/07/28 16:35:34;;;;;;;4.07;3.15;;;;;;;;;;10057443;28;20047;-67
2022/07/28 16:40:31;;;;;;;4.05;3.05;;;;;;;;;;10068880;28;20039;-67
2022/07/28 16:45:28;;;;;;;6.25;2.97;;;;;;;;;;10056911;28;20470;-67
2022/07/28 16:50:26;;;;;;;4.57;2.55;;;;;;;;;;10056965;28;20047;-66
2022/07/28 16:55:25;;;;;;;4.47;2.80;;;;;;;;;;10056281;28;20094;-68
2022/07/28 17:00:24;;;;;;;6.28;2.92;;;;;;;;;;10042690;28;20062;-66
2022/07/28 17:05:21;;;;;;;4.22;2.83;;;;;;;;;;10049299;28;20158;-68
2022/07/28 17:10:17;;;;;;;4.70;2.80;;;;;;;;;;10051604;28;20083;-68
2022/07/28 17:15:17;;;;;;;4.60;2.83;;;;;;;;;;10054438;28;20051;-68
2022/07/28 17:20:17;;;;;;;5.20;3.03;;;;;;;;;;10075685;28;20102;-68
2022/07/28 17:25:14;;;;;;;5.25;2.70;;;;;;;;;;10055302;28;20051;-68
2022/07/28 17:30:31;;;;;;;5.47;2.78;;;;;;;;;;10075435;28;20041;-68
2022/07/28 17:35:28;;;;;;;5.50;3.30;;;;;;;;;;10074957;28;20449;-68
2022/07/28 17:40:30;;;;;;;5.30;2.90;;;;;;;;;;10072429;28;20134;-68
2022/07/28 17:45:26;;;;;;;5.05;2.78;;;;;;;;;;10054923;28;20090;-68
2022/07/28 17:50:22;;;;;;;3.83;2.50;;;;;;;;;;10054745;28;20047;-68
2022/07/28 17:55:34;;;;;;;3.60;2.53;;;;;;;;;;10053894;28;20545;-67
2022/07/28 18:00:55;;;;;;;3.38;2.30;;;;;;;;;;10042569;28;20046;-67
2022/07/28 18:05:51;;;;;;;6.20;2.40;;;;;;;;;;10062483;28;20089;-68
2022/07/28 18:10:51;;;;;;;4.90;2.22;;;;;;;;;;10047043;28;20443;-67
2022/07/28 18:15:48;;;;;;;5.05;3.10;;;;;;;;;;10065283;28;20114;-68
2022/07/28 18:20:45;;;;;;;3.50;2.05;;;;;;;;;;10044316;28;20039;-68
2022/07/28 18:25:42;;;;;;;4.97;2.30;;;;;;;;;;10046577;28;20044;-67
2022/07/28 18:30:40;;;;;;;5.05;2.60;;;;;;;;;;10043010;28;20568;-67
2022/07/28 18:35:37;;;;;;;4.05;2.60;;;;;;;;;;10062657;28;20043;-67
2022/07/28 18:40:35;;;;;;;3.60;2.40;;;;;;;;;;10071316;28;20055;-68
2022/07/28 18:45:31;;;;;;;5.55;2.40;;;;;;;;;;10061818;28;20047;-67
2022/07/28 18:50:27;;;;;;;4.50;2.95;;;;;;;;;;10061719;28;20541;-68
2022/07/28 18:55:26;;;;;;;3.92;2.28;;;;;;;;;;10061160;28;20078;-68
2022/07/28 19:00:23;;;;;;;4.80;2.45;;;;;;;;;;10054261;28;20505;-67
2022/07/28 19:05:19;;;;;;;4.28;2.63;;;;;;;;;;10059673;28;20066;-67
2022/07/28 19:10:15;;;;;;;8.75;2.45;;;;;;;;;;10047145;28;20462;-67
2022/07/28 19:15:12;;;;;;;4.45;2.40;;;;;;;;;;10050934;28;20048;-67
2022/07/28 19:20:11;;;;;;;3.45;2.60;;;;;;;;;;10041044;28;20684;-67
2022/07/28 19:25:08;;;;;;;4.15;2.35;;;;;;;;;;10057892;28;20497;-67
2022/07/28 19:30:06;;;;;;;5.93;2.08;;;;;;;;;;10079848;28;20044;-67
2022/07/28 19:35:02;;;;;;;4.68;2.35;;;;;;;;;;10056499;28;20051;-67
2022/07/28 19:39:58;;;;;;;4.38;2.35;;;;;;;;;;10076696;28;20078;-68
2022/07/28 19:44:55;;;;;;;5.63;2.97;;;;;;;;;;10054565;28;20043;-68
2022/07/28 19:49:51;;;;;;;6.45;2.22;;;;;;;;;;10073770;28;20040;-67
2022/07/28 19:54:48;;;;;;;6.30;2.22;;;;;;;;;;10053710;28;20470;-67
2022/07/28 19:59:46;;;;;;;5.40;2.00;;;;;;;;;;10054720;28;20048;-67
2022/07/28 20:04:42;;;;;;;4.97;2.30;;;;;;;;;;10067030;28;20043;-67
2022/07/28 20:09:39;;;;;;;3.67;1.77;;;;;;;;;;10077793;28;20071;-67
2022/07/28 20:14:35;;;;;;;4.30;2.03;;;;;;;;;;10071883;28;20047;-67
2022/07/28 20:19:31;;;;;;;3.88;2.17;;;;;;;;;;10038322;28;20075;-67
2022/07/28 20:24:28;;;;;;;4.45;2.50;;;;;;;;;;10049382;28;20075;-68
2022/07/28 20:29:25;;;;;;;4.72;1.90;;;;;;;;;;10076749;28;20082;-67
2022/07/28 20:34:21;;;;;;;5.15;1.83;;;;;;;;;;10063826;28;20671;-67
2022/07/28 20:39:18;;;;;;;5.90;2.08;;;;;;;;;;10076573;28;20111;-67
2022/07/28 20:44:34;;;;;;;4.13;1.80;;;;;;;;;;10050254;28;20054;-67
2022/07/28 20:49:31;;;;;;;4.07;2.00;;;;;;;;;;10064073;28;20052;-67
2022/07/28 20:54:27;;;;;;;5.82;1.70;;;;;;;;;;10048562;28;20078;-67
2022/07/28 20:59:23;;;;;;;5.07;1.50;;;;;;;;;;10060536;28;20047;-67
2022/07/28 21:04:23;;;;;;;6.60;1.92;;;;;;;;;;10047635;28;20071;-67
2022/07/28 21:09:21;;;;;;;5.60;1.52;;;;;;;;;;10045237;28;20054;-67
2022/07/28 21:14:17;;;;;;;4.20;1.58;;;;;;;;;;10046001;28;20086;-67
2022/07/28 21:19:14;;;;;;;4.13;1.30;;;;;;;;;;10074451;28;20043;-67
2022/07/28 21:24:10;;;;;;;4.80;1.60;;;;;;;;;;10074854;28;20142;-67
2022/07/28 21:29:10;;;;;;;3.70;1.52;;;;;;;;;;10039280;29;20062;-67
2022/07/28 21:34:08;;;;;;;3.50;1.33;;;;;;;;;;10044601;28;20051;-67
2022/07/28 21:39:05;;;;;;;5.45;1.55;;;;;;;;;;10074082;28;20106;-67
2022/07/28 21:44:01;;;;;;;3.55;1.65;;;;;;;;;;10053086;28;20071;-67
2022/07/28 21:48:59;;;;;;;6.55;1.70;;;;;;;;;;10073295;28;20055;-67
2022/07/28 21:53:56;;;;;;;6.43;1.60;;;;;;;;;;10045905;28;20067;-67
2022/07/28 21:58:53;;;;;;;6.63;1.65;;;;;;;;;;10065880;28;20048;-67
2022/07/28 22:03:49;;;;;;;5.05;1.30;;;;;;;;;;10041840;28;20469;-67
2022/07/28 22:08:49;;;;;;;4.45;1.50;;;;;;;;;;10050799;28;20514;-67
2022/07/28 22:13:45;;;;;;;4.35;1.10;;;;;;;;;;10041019;28;20074;-67
2022/07/28 22:18:41;;;;;;;8.40;1.30;;;;;;;;;;10047677;28;20048;-67
2022/07/28 22:23:39;;;;;;;3.15;1.33;;;;;;;;;;10039720;28;20039;-67
2022/07/28 22:28:35;;;;;;;6.30;1.40;;;;;;;;;;10037719;28;20079;-67
2022/07/28 22:33:31;;;;;;;4.03;1.20;;;;;;;;;;10039257;28;20569;-68
2022/07/28 22:38:27;;;;;;;4.05;1.13;;;;;;;;;;10072910;28;20682;-67
2022/07/28 22:43:24;;;;;;;4.93;1.38;;;;;;;;;;10058707;28;20505;-67
2022/07/28 22:48:20;;;;;;;3.85;1.38;;;;;;;;;;10073456;28;20078;-67
2022/07/28 22:53:16;;;;;;;4.22;1.10;;;;;;;;;;10049853;28;20052;-67
2022/07/28 22:58:13;;;;;;;3.47;1.33;;;;;;;;;;10079824;28;20044;-67
2022/07/28 23:03:09;;;;;;;3.25;1.00;;;;;;;;;;10045477;28;20043;-67
2022/07/28 23:08:08;;;;;;;4.00;1.20;;;;;;;;;;10073790;28;20107;-67
2022/07/28 23:13:06;;;;;;;3.60;1.20;;;;;;;;;;10041697;28;20051;-67
2022/07/28 23:18:02;;;;;;;3.70;1.17;;;;;;;;;;10079009;28;20047;-67
2022/07/28 23:22:58;;;;;;;2.92;0.90;;;;;;;;;;10080569;28;20040;-67
2022/07/28 23:27:54;;;;;;;6.85;1.60;;;;;;;;;;10079169;28;20469;-67
2022/07/28 23:32:51;;;;;;;3.00;1.17;;;;;;;;;;10073122;28;20486;-67
2022/07/28 23:37:48;;;;;;;4.10;1.83;;;;;;;;;;10077593;28;20102;-67
2022/07/28 23:42:44;;;;;;;3.15;0.95;;;;;;;;;;10063901;28;20067;-67
2022/07/28 23:47:40;;;;;;;3.22;0.93;;;;;;;;;;10076454;28;20055;-67
2022/07/28 23:52:36;;;;;;;4.47;1.33;;;;;;;;;;10058555;28;20142;-67
2022/07/28 23:57:33;;;;;;;3.90;1.00;;;;;;;;;;10074669;28;20047;-67
